sensor_id;sensor_type;location;lat;lon;timestamp;temperature;humidity
71208;DHT22;58938;49.868;8.646;2022-10-16T00:01:21;18.80;80.30
71208;DHT22;58938;49.868;8.646;2022-10-16T00:03:48;18.80;80.30
71208;DHT22;58938;49.868;8.646;2022-10-16T00:06:15;18.80;80.30
71208;DHT22;58938;49.868;8.646;2022-10-16T00:08:41;18.80;80.30
71208;DHT22;58938;49.868;8.646;2022-10-16T00:11:20;18.80;80.40
71208;DHT22;58938;49.868;8.646;2022-10-16T00:13:49;18.80;80.40
71208;DHT22;58938;49.868;8.646;2022-10-16T00:16:15;18.80;80.40
71208;DHT22;58938;49.868;8.646;2022-10-16T00:18:42;18.80;80.50
71208;DHT22;58938;49.868;8.646;2022-10-16T00:21:12;18.80;80.40
71208;DHT22;58938;49.868;8.646;2022-10-16T00:23:39;18.80;80.40
71208;DHT22;58938;49.868;8.646;2022-10-16T00:26:08;18.80;80.40
71208;DHT22;58938;49.868;8.646;2022-10-16T00:28:35;18.80;80.40
71208;DHT22;58938;49.868;8.646;2022-10-16T00:31:05;18.80;80.50
71208;DHT22;58938;49.868;8.646;2022-10-16T00:33:32;18.80;80.40
71208;DHT22;58938;49.868;8.646;2022-10-16T00:35:59;18.80;80.40
71208;DHT22;58938;49.868;8.646;2022-10-16T00:38:25;18.80;80.40
71208;DHT22;58938;49.868;8.646;2022-10-16T00:40:50;18.80;80.40
71208;DHT22;58938;49.868;8.646;2022-10-16T00:46:38;18.70;80.40
71208;DHT22;58938;49.868;8.646;2022-10-16T00:49:15;18.80;80.30
71208;DHT22;58938;49.868;8.646;2022-10-16T00:51:43;18.70;80.30
71208;DHT22;58938;49.868;8.646;2022-10-16T00:54:13;18.70;80.20
71208;DHT22;58938;49.868;8.646;2022-10-16T00:56:40;18.70;80.20
71208;DHT22;58938;49.868;8.646;2022-10-16T00:59:16;18.70;80.10
71208;DHT22;58938;49.868;8.646;2022-10-16T01:01:43;18.70;80.00
71208;DHT22;58938;49.868;8.646;2022-10-16T01:04:08;18.70;80.00
71208;DHT22;58938;49.868;8.646;2022-10-16T01:06:51;18.60;79.90
71208;DHT22;58938;49.868;8.646;2022-10-16T01:12:14;18.60;79.80
71208;DHT22;58938;49.868;8.646;2022-10-16T01:17:37;18.60;79.70
71208;DHT22;58938;49.868;8.646;2022-10-16T01:20:30;18.60;79.70
71208;DHT22;58938;49.868;8.646;2022-10-16T01:31:17;18.60;79.50
71208;DHT22;58938;49.868;8.646;2022-10-16T01:33:47;18.60;79.50
71208;DHT22;58938;49.868;8.646;2022-10-16T01:36:16;18.60;79.40
71208;DHT22;58938;49.868;8.646;2022-10-16T01:38:44;18.60;79.40
71208;DHT22;58938;49.868;8.646;2022-10-16T01:41:26;18.60;79.30
71208;DHT22;58938;49.868;8.646;2022-10-16T01:44:04;18.70;79.40
71208;DHT22;58938;49.868;8.646;2022-10-16T01:46:33;18.60;79.30
71208;DHT22;58938;49.868;8.646;2022-10-16T01:49:00;18.60;79.30
71208;DHT22;58938;49.868;8.646;2022-10-16T01:51:28;18.60;79.30
71208;DHT22;58938;49.868;8.646;2022-10-16T01:53:56;18.60;79.30
71208;DHT22;58938;49.868;8.646;2022-10-16T01:56:24;18.60;79.30
71208;DHT22;58938;49.868;8.646;2022-10-16T01:58:55;18.70;79.30
71208;DHT22;58938;49.868;8.646;2022-10-16T02:01:25;18.70;79.30
71208;DHT22;58938;49.868;8.646;2022-10-16T02:03:54;18.70;79.30
71208;DHT22;58938;49.868;8.646;2022-10-16T02:06:21;18.70;79.30
71208;DHT22;58938;49.868;8.646;2022-10-16T02:08:49;18.70;79.30
71208;DHT22;58938;49.868;8.646;2022-10-16T02:11:14;18.70;79.30
71208;DHT22;58938;49.868;8.646;2022-10-16T02:13:54;18.70;79.30
71208;DHT22;58938;49.868;8.646;2022-10-16T02:16:20;18.60;79.30
71208;DHT22;58938;49.868;8.646;2022-10-16T02:18:46;18.70;79.40
71208;DHT22;58938;49.868;8.646;2022-10-16T02:23:54;18.70;79.40
71208;DHT22;58938;49.868;8.646;2022-10-16T02:26:29;18.70;79.40
71208;DHT22;58938;49.868;8.646;2022-10-16T02:29:00;18.70;79.40
71208;DHT22;58938;49.868;8.646;2022-10-16T02:31:32;18.70;79.50
71208;DHT22;58938;49.868;8.646;2022-10-16T02:34:00;18.70;79.50
71208;DHT22;58938;49.868;8.646;2022-10-16T02:36:27;18.70;79.40
71208;DHT22;58938;49.868;8.646;2022-10-16T02:38:53;18.70;79.50
71208;DHT22;58938;49.868;8.646;2022-10-16T02:41:21;18.70;79.50
71208;DHT22;58938;49.868;8.646;2022-10-16T02:43:47;18.70;79.50
71208;DHT22;58938;49.868;8.646;2022-10-16T02:46:13;18.70;79.40
71208;DHT22;58938;49.868;8.646;2022-10-16T02:48:38;18.70;79.40
71208;DHT22;58938;49.868;8.646;2022-10-16T02:51:04;18.70;79.50
71208;DHT22;58938;49.868;8.646;2022-10-16T02:53:30;18.70;79.50
71208;DHT22;58938;49.868;8.646;2022-10-16T02:55:56;18.70;79.50
71208;DHT22;58938;49.868;8.646;2022-10-16T02:58:21;18.70;79.50
71208;DHT22;58938;49.868;8.646;2022-10-16T03:00:47;18.80;79.50
71208;DHT22;58938;49.868;8.646;2022-10-16T03:03:12;18.80;79.60
71208;DHT22;58938;49.868;8.646;2022-10-16T03:05:38;18.80;79.60
71208;DHT22;58938;49.868;8.646;2022-10-16T03:08:03;18.80;79.70
71208;DHT22;58938;49.868;8.646;2022-10-16T03:10:29;18.80;79.70
71208;DHT22;58938;49.868;8.646;2022-10-16T03:12:55;18.80;79.60
71208;DHT22;58938;49.868;8.646;2022-10-16T03:15:20;18.80;79.70
71208;DHT22;58938;49.868;8.646;2022-10-16T03:17:46;18.80;79.60
71208;DHT22;58938;49.868;8.646;2022-10-16T03:20:11;18.80;79.70
71208;DHT22;58938;49.868;8.646;2022-10-16T03:22:37;18.80;79.70
71208;DHT22;58938;49.868;8.646;2022-10-16T03:25:02;18.80;79.70
71208;DHT22;58938;49.868;8.646;2022-10-16T03:27:28;18.80;79.70
71208;DHT22;58938;49.868;8.646;2022-10-16T03:29:54;18.80;79.80
71208;DHT22;58938;49.868;8.646;2022-10-16T03:32:19;18.80;79.70
71208;DHT22;58938;49.868;8.646;2022-10-16T03:34:45;18.80;79.80
71208;DHT22;58938;49.868;8.646;2022-10-16T03:37:11;18.80;79.80
71208;DHT22;58938;49.868;8.646;2022-10-16T03:39:37;18.80;79.80
71208;DHT22;58938;49.868;8.646;2022-10-16T03:42:02;18.80;79.80
71208;DHT22;58938;49.868;8.646;2022-10-16T03:44:28;18.80;79.80
71208;DHT22;58938;49.868;8.646;2022-10-16T03:46:53;18.80;79.80
71208;DHT22;58938;49.868;8.646;2022-10-16T03:49:19;18.80;79.80
71208;DHT22;58938;49.868;8.646;2022-10-16T03:51:44;18.80;79.80
71208;DHT22;58938;49.868;8.646;2022-10-16T03:54:10;18.80;79.80
71208;DHT22;58938;49.868;8.646;2022-10-16T03:56:36;18.80;79.90
71208;DHT22;58938;49.868;8.646;2022-10-16T03:59:01;18.80;79.90
71208;DHT22;58938;49.868;8.646;2022-10-16T04:01:27;18.80;79.90
71208;DHT22;58938;49.868;8.646;2022-10-16T04:03:52;18.80;79.90
71208;DHT22;58938;49.868;8.646;2022-10-16T04:06:18;18.90;79.90
71208;DHT22;58938;49.868;8.646;2022-10-16T04:08:44;18.80;79.90
71208;DHT22;58938;49.868;8.646;2022-10-16T04:11:12;18.80;79.90
71208;DHT22;58938;49.868;8.646;2022-10-16T04:13:38;18.80;79.90
71208;DHT22;58938;49.868;8.646;2022-10-16T04:16:03;18.80;79.90
71208;DHT22;58938;49.868;8.646;2022-10-16T04:18:29;18.80;80.00
71208;DHT22;58938;49.868;8.646;2022-10-16T04:20:55;18.80;79.90
71208;DHT22;58938;49.868;8.646;2022-10-16T04:23:20;18.80;79.90
71208;DHT22;58938;49.868;8.646;2022-10-16T04:25:48;18.80;79.90
71208;DHT22;58938;49.868;8.646;2022-10-16T04:28:14;18.80;79.90
71208;DHT22;58938;49.868;8.646;2022-10-16T04:30:39;18.80;80.00
71208;DHT22;58938;49.868;8.646;2022-10-16T04:33:05;18.80;80.10
71208;DHT22;58938;49.868;8.646;2022-10-16T04:35:30;18.80;80.00
71208;DHT22;58938;49.868;8.646;2022-10-16T04:37:59;18.80;80.00
71208;DHT22;58938;49.868;8.646;2022-10-16T04:40:24;18.80;80.00
71208;DHT22;58938;49.868;8.646;2022-10-16T04:42:50;18.80;80.00
71208;DHT22;58938;49.868;8.646;2022-10-16T04:45:18;18.80;80.00
71208;DHT22;58938;49.868;8.646;2022-10-16T04:47:44;18.80;80.00
71208;DHT22;58938;49.868;8.646;2022-10-16T04:50:10;18.80;80.00
71208;DHT22;58938;49.868;8.646;2022-10-16T04:52:36;18.80;80.10
71208;DHT22;58938;49.868;8.646;2022-10-16T04:55:01;18.80;80.00
71208;DHT22;58938;49.868;8.646;2022-10-16T04:57:29;18.80;80.10
71208;DHT22;58938;49.868;8.646;2022-10-16T04:59:54;18.80;80.10
71208;DHT22;58938;49.868;8.646;2022-10-16T05:02:20;18.80;80.10
71208;DHT22;58938;49.868;8.646;2022-10-16T05:04:45;18.80;80.10
71208;DHT22;58938;49.868;8.646;2022-10-16T05:07:11;18.80;80.10
71208;DHT22;58938;49.868;8.646;2022-10-16T05:09:37;18.80;80.10
71208;DHT22;58938;49.868;8.646;2022-10-16T05:12:02;18.80;80.10
71208;DHT22;58938;49.868;8.646;2022-10-16T05:14:29;18.80;80.10
71208;DHT22;58938;49.868;8.646;2022-10-16T05:16:54;18.80;80.10
71208;DHT22;58938;49.868;8.646;2022-10-16T05:19:20;18.80;80.10
71208;DHT22;58938;49.868;8.646;2022-10-16T05:21:46;18.80;80.00
71208;DHT22;58938;49.868;8.646;2022-10-16T05:24:11;18.80;80.20
71208;DHT22;58938;49.868;8.646;2022-10-16T05:26:37;18.80;80.10
71208;DHT22;58938;49.868;8.646;2022-10-16T05:29:03;18.80;80.10
71208;DHT22;58938;49.868;8.646;2022-10-16T05:31:31;18.80;80.10
71208;DHT22;58938;49.868;8.646;2022-10-16T05:34:00;18.80;80.10
71208;DHT22;58938;49.868;8.646;2022-10-16T05:36:27;18.80;80.10
71208;DHT22;58938;49.868;8.646;2022-10-16T05:38:53;18.80;80.10
71208;DHT22;58938;49.868;8.646;2022-10-16T05:41:19;18.80;80.10
71208;DHT22;58938;49.868;8.646;2022-10-16T05:43:47;18.80;80.10
71208;DHT22;58938;49.868;8.646;2022-10-16T05:46:13;18.80;80.10
71208;DHT22;58938;49.868;8.646;2022-10-16T05:48:39;18.80;80.10
71208;DHT22;58938;49.868;8.646;2022-10-16T05:51:06;18.80;80.00
71208;DHT22;58938;49.868;8.646;2022-10-16T05:53:36;18.80;80.10
71208;DHT22;58938;49.868;8.646;2022-10-16T05:56:02;18.80;80.00
71208;DHT22;58938;49.868;8.646;2022-10-16T05:58:33;18.80;80.00
71208;DHT22;58938;49.868;8.646;2022-10-16T06:01:05;18.80;80.00
71208;DHT22;58938;49.868;8.646;2022-10-16T06:03:32;18.80;80.00
71208;DHT22;58938;49.868;8.646;2022-10-16T06:05:58;18.80;80.00
71208;DHT22;58938;49.868;8.646;2022-10-16T06:08:23;18.80;80.00
71208;DHT22;58938;49.868;8.646;2022-10-16T06:11:00;18.80;79.90
71208;DHT22;58938;49.868;8.646;2022-10-16T06:13:26;18.80;80.00
71208;DHT22;58938;49.868;8.646;2022-10-16T06:15:51;18.80;79.90
71208;DHT22;58938;49.868;8.646;2022-10-16T06:18:17;18.80;80.00
71208;DHT22;58938;49.868;8.646;2022-10-16T06:20:42;18.80;79.90
71208;DHT22;58938;49.868;8.646;2022-10-16T06:23:08;18.80;80.00
71208;DHT22;58938;49.868;8.646;2022-10-16T06:25:33;18.80;79.90
71208;DHT22;58938;49.868;8.646;2022-10-16T06:27:59;18.80;79.90
71208;DHT22;58938;49.868;8.646;2022-10-16T06:30:25;18.80;79.90
71208;DHT22;58938;49.868;8.646;2022-10-16T06:32:50;18.80;79.90
71208;DHT22;58938;49.868;8.646;2022-10-16T06:35:16;18.80;79.90
71208;DHT22;58938;49.868;8.646;2022-10-16T06:37:41;18.80;79.90
71208;DHT22;58938;49.868;8.646;2022-10-16T06:40:07;18.80;79.90
71208;DHT22;58938;49.868;8.646;2022-10-16T06:42:33;18.80;79.90
71208;DHT22;58938;49.868;8.646;2022-10-16T06:44:58;18.80;79.90
71208;DHT22;58938;49.868;8.646;2022-10-16T06:47:24;18.80;80.00
71208;DHT22;58938;49.868;8.646;2022-10-16T06:49:49;18.80;79.90
71208;DHT22;58938;49.868;8.646;2022-10-16T06:52:15;18.80;79.90
71208;DHT22;58938;49.868;8.646;2022-10-16T06:54:40;18.80;79.90
71208;DHT22;58938;49.868;8.646;2022-10-16T06:57:06;18.80;79.90
71208;DHT22;58938;49.868;8.646;2022-10-16T06:59:31;18.80;79.90
71208;DHT22;58938;49.868;8.646;2022-10-16T07:01:57;18.90;79.90
71208;DHT22;58938;49.868;8.646;2022-10-16T07:04:23;18.90;79.90
71208;DHT22;58938;49.868;8.646;2022-10-16T07:06:48;18.90;79.90
71208;DHT22;58938;49.868;8.646;2022-10-16T07:09:14;18.90;79.80
71208;DHT22;58938;49.868;8.646;2022-10-16T07:11:40;18.90;79.80
71208;DHT22;58938;49.868;8.646;2022-10-16T07:14:18;18.90;79.80
71208;DHT22;58938;49.868;8.646;2022-10-16T07:16:45;18.90;79.80
71208;DHT22;58938;49.868;8.646;2022-10-16T07:19:11;18.90;79.80
71208;DHT22;58938;49.868;8.646;2022-10-16T07:21:38;18.90;79.90
71208;DHT22;58938;49.868;8.646;2022-10-16T07:24:06;18.90;79.90
71208;DHT22;58938;49.868;8.646;2022-10-16T07:26:34;18.90;79.90
71208;DHT22;58938;49.868;8.646;2022-10-16T07:29:00;18.90;79.90
71208;DHT22;58938;49.868;8.646;2022-10-16T07:31:26;18.90;79.90
71208;DHT22;58938;49.868;8.646;2022-10-16T07:33:52;19.00;79.90
71208;DHT22;58938;49.868;8.646;2022-10-16T07:36:19;19.00;79.90
71208;DHT22;58938;49.868;8.646;2022-10-16T07:38:46;19.00;79.90
71208;DHT22;58938;49.868;8.646;2022-10-16T07:41:14;19.00;79.80
71208;DHT22;58938;49.868;8.646;2022-10-16T07:43:40;19.00;79.80
71208;DHT22;58938;49.868;8.646;2022-10-16T07:46:10;19.00;79.90
71208;DHT22;58938;49.868;8.646;2022-10-16T07:48:35;19.00;79.80
71208;DHT22;58938;49.868;8.646;2022-10-16T07:51:03;19.00;79.80
71208;DHT22;58938;49.868;8.646;2022-10-16T07:53:29;19.00;79.80
71208;DHT22;58938;49.868;8.646;2022-10-16T07:56:04;19.00;79.80
71208;DHT22;58938;49.868;8.646;2022-10-16T07:58:33;19.00;79.90
71208;DHT22;58938;49.868;8.646;2022-10-16T08:00:59;19.00;79.90
71208;DHT22;58938;49.868;8.646;2022-10-16T08:03:27;19.00;79.90
71208;DHT22;58938;49.868;8.646;2022-10-16T08:05:53;19.00;79.90
71208;DHT22;58938;49.868;8.646;2022-10-16T08:08:18;19.00;79.90
71208;DHT22;58938;49.868;8.646;2022-10-16T08:10:44;19.00;79.90
71208;DHT22;58938;49.868;8.646;2022-10-16T08:13:10;19.00;79.90
71208;DHT22;58938;49.868;8.646;2022-10-16T08:15:36;19.10;79.90
71208;DHT22;58938;49.868;8.646;2022-10-16T08:18:03;19.00;79.90
71208;DHT22;58938;49.868;8.646;2022-10-16T08:20:30;19.00;79.90
71208;DHT22;58938;49.868;8.646;2022-10-16T08:22:56;19.10;79.90
71208;DHT22;58938;49.868;8.646;2022-10-16T08:25:23;19.10;80.00
71208;DHT22;58938;49.868;8.646;2022-10-16T08:27:49;19.10;80.00
71208;DHT22;58938;49.868;8.646;2022-10-16T08:30:16;19.10;80.00
71208;DHT22;58938;49.868;8.646;2022-10-16T08:32:42;19.10;80.00
71208;DHT22;58938;49.868;8.646;2022-10-16T08:35:12;19.10;80.10
71208;DHT22;58938;49.868;8.646;2022-10-16T08:37:38;19.10;80.00
71208;DHT22;58938;49.868;8.646;2022-10-16T08:40:06;19.10;80.00
71208;DHT22;58938;49.868;8.646;2022-10-16T08:42:36;19.00;80.00
71208;DHT22;58938;49.868;8.646;2022-10-16T08:45:29;19.00;80.00
71208;DHT22;58938;49.868;8.646;2022-10-16T08:48:15;19.00;80.00
71208;DHT22;58938;49.868;8.646;2022-10-16T08:50:44;19.00;80.10
71208;DHT22;58938;49.868;8.646;2022-10-16T08:53:23;18.90;80.10
71208;DHT22;58938;49.868;8.646;2022-10-16T08:55:51;18.90;80.20
71208;DHT22;58938;49.868;8.646;2022-10-16T08:58:22;18.90;80.20
71208;DHT22;58938;49.868;8.646;2022-10-16T09:00:54;18.90;80.20
71208;DHT22;58938;49.868;8.646;2022-10-16T09:11:23;18.90;80.40
71208;DHT22;58938;49.868;8.646;2022-10-16T09:16:46;18.90;80.60
71208;DHT22;58938;49.868;8.646;2022-10-16T09:19:18;18.90;80.60
71208;DHT22;58938;49.868;8.646;2022-10-16T09:21:47;18.90;80.60
71208;DHT22;58938;49.868;8.646;2022-10-16T09:24:19;19.00;80.60
71208;DHT22;58938;49.868;8.646;2022-10-16T09:26:45;19.00;80.70
71208;DHT22;58938;49.868;8.646;2022-10-16T09:29:13;19.00;80.70
71208;DHT22;58938;49.868;8.646;2022-10-16T09:31:39;19.00;80.80
71208;DHT22;58938;49.868;8.646;2022-10-16T09:34:08;19.10;80.80
71208;DHT22;58938;49.868;8.646;2022-10-16T09:36:42;19.10;80.80
71208;DHT22;58938;49.868;8.646;2022-10-16T09:39:10;19.10;80.90
71208;DHT22;58938;49.868;8.646;2022-10-16T09:41:43;19.10;81.00
71208;DHT22;58938;49.868;8.646;2022-10-16T09:44:28;19.20;80.90
71208;DHT22;58938;49.868;8.646;2022-10-16T09:47:05;19.20;81.00
71208;DHT22;58938;49.868;8.646;2022-10-16T09:49:37;19.20;81.00
71208;DHT22;58938;49.868;8.646;2022-10-16T09:52:04;19.30;81.10
71208;DHT22;58938;49.868;8.646;2022-10-16T09:54:31;19.30;81.20
71208;DHT22;58938;49.868;8.646;2022-10-16T09:57:07;19.40;81.20
71208;DHT22;58938;49.868;8.646;2022-10-16T09:59:46;19.40;81.20
71208;DHT22;58938;49.868;8.646;2022-10-16T10:02:15;19.50;81.20
71208;DHT22;58938;49.868;8.646;2022-10-16T10:04:51;19.50;81.30
71208;DHT22;58938;49.868;8.646;2022-10-16T10:07:27;19.60;81.30
71208;DHT22;58938;49.868;8.646;2022-10-16T10:09:54;19.60;81.40
71208;DHT22;58938;49.868;8.646;2022-10-16T10:12:27;19.70;81.40
71208;DHT22;58938;49.868;8.646;2022-10-16T10:14:56;19.70;81.50
71208;DHT22;58938;49.868;8.646;2022-10-16T10:17:27;19.70;81.50
71208;DHT22;58938;49.868;8.646;2022-10-16T10:22:31;19.70;81.40
71208;DHT22;58938;49.868;8.646;2022-10-16T10:33:54;19.80;81.50
71208;DHT22;58938;49.868;8.646;2022-10-16T10:36:39;19.80;81.50
71208;DHT22;58938;49.868;8.646;2022-10-16T10:42:07;19.80;81.40
71208;DHT22;58938;49.868;8.646;2022-10-16T10:44:54;19.90;81.40
71208;DHT22;58938;49.868;8.646;2022-10-16T10:47:48;19.90;81.30
71208;DHT22;58938;49.868;8.646;2022-10-16T11:03:32;20.10;81.10
71208;DHT22;58938;49.868;8.646;2022-10-16T11:06:16;20.10;81.10
71208;DHT22;58938;49.868;8.646;2022-10-16T11:08:49;20.10;81.00
71208;DHT22;58938;49.868;8.646;2022-10-16T11:11:40;20.20;81.00
71208;DHT22;58938;49.868;8.646;2022-10-16T11:14:17;20.20;81.00
71208;DHT22;58938;49.868;8.646;2022-10-16T11:19:24;20.20;80.90
71208;DHT22;58938;49.868;8.646;2022-10-16T11:22:00;20.10;80.80
71208;DHT22;58938;49.868;8.646;2022-10-16T11:24:53;20.10;80.80
71208;DHT22;58938;49.868;8.646;2022-10-16T11:27:27;20.10;80.80
71208;DHT22;58938;49.868;8.646;2022-10-16T11:29:58;20.20;80.60
71208;DHT22;58938;49.868;8.646;2022-10-16T11:32:55;20.20;80.60
71208;DHT22;58938;49.868;8.646;2022-10-16T11:35:37;20.30;80.40
71208;DHT22;58938;49.868;8.646;2022-10-16T11:38:09;20.40;80.10
71208;DHT22;58938;49.868;8.646;2022-10-16T11:40:38;20.50;80.30
71208;DHT22;58938;49.868;8.646;2022-10-16T11:46:20;20.60;79.90
71208;DHT22;58938;49.868;8.646;2022-10-16T11:49:03;20.60;79.70
71208;DHT22;58938;49.868;8.646;2022-10-16T11:52:03;20.60;79.60
71208;DHT22;58938;49.868;8.646;2022-10-16T11:57:24;20.60;79.40
71208;DHT22;58938;49.868;8.646;2022-10-16T12:00:02;20.60;79.20
71208;DHT22;58938;49.868;8.646;2022-10-16T12:02:35;20.60;79.30
71208;DHT22;58938;49.868;8.646;2022-10-16T12:05:11;20.80;79.30
71208;DHT22;58938;49.868;8.646;2022-10-16T12:07:41;20.90;78.00
71208;DHT22;58938;49.868;8.646;2022-10-16T12:10:26;21.00;77.70
71208;DHT22;58938;49.868;8.646;2022-10-16T12:12:52;21.00;77.70
71208;DHT22;58938;49.868;8.646;2022-10-16T12:17:49;21.10;77.60
71208;DHT22;58938;49.868;8.646;2022-10-16T12:20:20;21.20;77.50
71208;DHT22;58938;49.868;8.646;2022-10-16T12:23:04;21.30;77.40
71208;DHT22;58938;49.868;8.646;2022-10-16T12:25:33;21.40;77.40
71208;DHT22;58938;49.868;8.646;2022-10-16T12:28:06;21.40;77.10
71208;DHT22;58938;49.868;8.646;2022-10-16T12:30:35;21.40;77.00
71208;DHT22;58938;49.868;8.646;2022-10-16T12:33:15;21.40;76.50
71208;DHT22;58938;49.868;8.646;2022-10-16T12:35:45;21.40;76.40
71208;DHT22;58938;49.868;8.646;2022-10-16T12:38:35;21.30;76.40
71208;DHT22;58938;49.868;8.646;2022-10-16T12:41:07;21.30;76.30
71208;DHT22;58938;49.868;8.646;2022-10-16T12:43:41;21.30;76.30
71208;DHT22;58938;49.868;8.646;2022-10-16T12:48:40;21.30;76.20
71208;DHT22;58938;49.868;8.646;2022-10-16T12:51:36;21.30;75.90
71208;DHT22;58938;49.868;8.646;2022-10-16T13:02:34;21.30;75.90
71208;DHT22;58938;49.868;8.646;2022-10-16T13:10:36;21.30;75.90
71208;DHT22;58938;49.868;8.646;2022-10-16T13:13:33;21.40;75.90
71208;DHT22;58938;49.868;8.646;2022-10-16T13:16:20;21.40;75.90
71208;DHT22;58938;49.868;8.646;2022-10-16T13:19:24;21.40;75.80
71208;DHT22;58938;49.868;8.646;2022-10-16T13:27:59;21.30;75.90
71208;DHT22;58938;49.868;8.646;2022-10-16T13:30:39;21.30;75.90
71208;DHT22;58938;49.868;8.646;2022-10-16T13:33:15;21.30;75.80
71208;DHT22;58938;49.868;8.646;2022-10-16T13:35:53;21.30;75.80
71208;DHT22;58938;49.868;8.646;2022-10-16T13:38:20;21.30;75.80
71208;DHT22;58938;49.868;8.646;2022-10-16T13:40:57;21.30;75.80
71208;DHT22;58938;49.868;8.646;2022-10-16T13:43:50;21.30;75.70
71208;DHT22;58938;49.868;8.646;2022-10-16T13:46:19;21.30;75.80
71208;DHT22;58938;49.868;8.646;2022-10-16T13:49:10;21.30;75.80
71208;DHT22;58938;49.868;8.646;2022-10-16T13:51:36;21.30;75.80
71208;DHT22;58938;49.868;8.646;2022-10-16T13:54:02;21.20;75.70
71208;DHT22;58938;49.868;8.646;2022-10-16T13:56:29;21.20;75.70
71208;DHT22;58938;49.868;8.646;2022-10-16T14:01:42;21.30;75.70
71208;DHT22;58938;49.868;8.646;2022-10-16T14:04:11;21.20;75.80
71208;DHT22;58938;49.868;8.646;2022-10-16T14:06:41;21.30;75.80
71208;DHT22;58938;49.868;8.646;2022-10-16T14:11:47;21.20;75.80
71208;DHT22;58938;49.868;8.646;2022-10-16T14:14:14;21.20;75.90
71208;DHT22;58938;49.868;8.646;2022-10-16T14:16:42;21.30;75.90
71208;DHT22;58938;49.868;8.646;2022-10-16T14:19:34;21.30;75.80
71208;DHT22;58938;49.868;8.646;2022-10-16T14:22:01;21.30;75.90
71208;DHT22;58938;49.868;8.646;2022-10-16T14:24:31;21.30;75.90
71208;DHT22;58938;49.868;8.646;2022-10-16T14:26:57;21.30;75.80
71208;DHT22;58938;49.868;8.646;2022-10-16T14:29:24;21.30;75.80
71208;DHT22;58938;49.868;8.646;2022-10-16T14:31:59;21.30;75.90
71208;DHT22;58938;49.868;8.646;2022-10-16T14:34:28;21.30;75.90
71208;DHT22;58938;49.868;8.646;2022-10-16T14:36:55;21.30;75.90
71208;DHT22;58938;49.868;8.646;2022-10-16T14:39:22;21.30;75.90
71208;DHT22;58938;49.868;8.646;2022-10-16T14:41:50;21.30;76.00
71208;DHT22;58938;49.868;8.646;2022-10-16T14:44:18;21.30;76.00
71208;DHT22;58938;49.868;8.646;2022-10-16T14:46:44;21.30;76.00
71208;DHT22;58938;49.868;8.646;2022-10-16T14:51:37;21.30;76.10
71208;DHT22;58938;49.868;8.646;2022-10-16T14:54:04;21.30;76.10
71208;DHT22;58938;49.868;8.646;2022-10-16T14:56:33;21.30;76.10
71208;DHT22;58938;49.868;8.646;2022-10-16T14:59:00;21.30;76.10
71208;DHT22;58938;49.868;8.646;2022-10-16T15:01:27;21.30;76.20
71208;DHT22;58938;49.868;8.646;2022-10-16T15:03:52;21.30;76.10
71208;DHT22;58938;49.868;8.646;2022-10-16T15:06:20;21.40;76.20
71208;DHT22;58938;49.868;8.646;2022-10-16T15:08:45;21.30;76.20
71208;DHT22;58938;49.868;8.646;2022-10-16T15:11:16;21.40;76.20
71208;DHT22;58938;49.868;8.646;2022-10-16T15:13:42;21.40;76.10
71208;DHT22;58938;49.868;8.646;2022-10-16T15:16:13;21.40;76.20
71208;DHT22;58938;49.868;8.646;2022-10-16T15:18:39;21.40;76.20
71208;DHT22;58938;49.868;8.646;2022-10-16T15:21:05;21.40;76.20
71208;DHT22;58938;49.868;8.646;2022-10-16T15:23:30;21.40;76.20
71208;DHT22;58938;49.868;8.646;2022-10-16T15:25:56;21.40;76.10
71208;DHT22;58938;49.868;8.646;2022-10-16T15:28:23;21.40;76.10
71208;DHT22;58938;49.868;8.646;2022-10-16T15:30:50;21.40;76.10
71208;DHT22;58938;49.868;8.646;2022-10-16T15:33:18;21.40;76.10
71208;DHT22;58938;49.868;8.646;2022-10-16T15:35:48;21.40;76.10
71208;DHT22;58938;49.868;8.646;2022-10-16T15:38:14;21.40;76.10
71208;DHT22;58938;49.868;8.646;2022-10-16T15:40:41;21.40;76.10
71208;DHT22;58938;49.868;8.646;2022-10-16T15:43:06;21.40;76.10
71208;DHT22;58938;49.868;8.646;2022-10-16T15:45:32;21.40;76.10
71208;DHT22;58938;49.868;8.646;2022-10-16T15:47:58;21.40;76.10
71208;DHT22;58938;49.868;8.646;2022-10-16T15:50:23;21.40;76.10
71208;DHT22;58938;49.868;8.646;2022-10-16T15:52:50;21.40;76.10
71208;DHT22;58938;49.868;8.646;2022-10-16T15:55:16;21.40;76.10
71208;DHT22;58938;49.868;8.646;2022-10-16T15:57:44;21.40;76.10
71208;DHT22;58938;49.868;8.646;2022-10-16T16:00:16;21.40;76.20
71208;DHT22;58938;49.868;8.646;2022-10-16T16:02:44;21.40;76.10
71208;DHT22;58938;49.868;8.646;2022-10-16T16:05:14;21.40;76.10
71208;DHT22;58938;49.868;8.646;2022-10-16T16:07:40;21.40;76.10
71208;DHT22;58938;49.868;8.646;2022-10-16T16:10:08;21.40;76.10
71208;DHT22;58938;49.868;8.646;2022-10-16T16:12:35;21.40;76.10
71208;DHT22;58938;49.868;8.646;2022-10-16T16:15:00;21.30;76.10
71208;DHT22;58938;49.868;8.646;2022-10-16T16:17:26;21.30;76.10
71208;DHT22;58938;49.868;8.646;2022-10-16T16:19:52;21.30;76.10
71208;DHT22;58938;49.868;8.646;2022-10-16T16:22:20;21.30;76.10
71208;DHT22;58938;49.868;8.646;2022-10-16T16:24:45;21.30;76.20
71208;DHT22;58938;49.868;8.646;2022-10-16T16:27:11;21.30;76.20
71208;DHT22;58938;49.868;8.646;2022-10-16T16:29:36;21.30;76.20
71208;DHT22;58938;49.868;8.646;2022-10-16T16:32:02;21.30;76.20
71208;DHT22;58938;49.868;8.646;2022-10-16T16:34:28;21.30;76.20
71208;DHT22;58938;49.868;8.646;2022-10-16T16:36:55;21.20;76.20
71208;DHT22;58938;49.868;8.646;2022-10-16T16:39:21;21.30;76.20
71208;DHT22;58938;49.868;8.646;2022-10-16T16:41:46;21.20;76.30
71208;DHT22;58938;49.868;8.646;2022-10-16T16:44:13;21.20;76.30
71208;DHT22;58938;49.868;8.646;2022-10-16T16:46:39;21.20;76.30
71208;DHT22;58938;49.868;8.646;2022-10-16T16:49:06;21.20;76.30
71208;DHT22;58938;49.868;8.646;2022-10-16T16:51:32;21.20;76.30
71208;DHT22;58938;49.868;8.646;2022-10-16T16:53:58;21.20;76.30
71208;DHT22;58938;49.868;8.646;2022-10-16T16:56:25;21.20;76.20
71208;DHT22;58938;49.868;8.646;2022-10-16T16:58:53;21.20;76.20
71208;DHT22;58938;49.868;8.646;2022-10-16T17:01:20;21.20;76.20
71208;DHT22;58938;49.868;8.646;2022-10-16T17:03:46;21.20;76.20
71208;DHT22;58938;49.868;8.646;2022-10-16T17:06:14;21.10;76.20
71208;DHT22;58938;49.868;8.646;2022-10-16T17:08:41;21.10;76.10
71208;DHT22;58938;49.868;8.646;2022-10-16T17:11:12;21.10;76.10
71208;DHT22;58938;49.868;8.646;2022-10-16T17:13:38;21.10;76.10
71208;DHT22;58938;49.868;8.646;2022-10-16T17:16:05;21.10;76.10
71208;DHT22;58938;49.868;8.646;2022-10-16T17:18:31;21.10;76.10
71208;DHT22;58938;49.868;8.646;2022-10-16T17:21:02;21.10;76.00
71208;DHT22;58938;49.868;8.646;2022-10-16T17:23:28;21.10;76.00